Time;durP1;ratioP1;P1;durP2;ratioP2;P2;SDS_P1;SDS_P2;PMS_P1;PMS_P2;Temp;Humidity;BMP_temperature;BMP_pressure;BME280_temperature;BME280_humidity;BME280_pressure;Samples;Min_cycle;Max_cycle;Signal;HPM_P1;HPM_P2
2023/03/28 00:00:20;;;;;;;;;;;;;;;;;;1032741;28;3073;-55
2023/03/28 00:01:11;;;;;;;;;;;;;;;;;;1031630;28;4062;-55
2023/03/28 00:01:41;;;;;;;;;;;;;;;;;;1035082;28;3922;-57
2023/03/28 00:02:11;;;;;;;;;;;;;;;;;;1033505;28;2522;-55
2023/03/28 00:02:42;;;;;;;;;;;;;;;;;;1034257;28;4034;-54
2023/03/28 00:03:17;;;;;;;;;;;;;;;;;;1032779;28;2063;-55
2023/03/28 00:03:47;;;;;;;;;;;;;;;;;;1034188;28;4042;-56
2023/03/28 00:04:21;;;;;;;;;;;;;;;;;;1034149;28;2673;-55
2023/03/28 00:04:51;;;;;;;;;;;;;;;;;;1034633;28;4045;-56
2023/03/28 00:05:22;;;;;;;;;;;;;;;;;;1034115;28;2197;-56
2023/03/28 00:05:59;;;;;;;;;;;;;;;;;;1030665;28;4018;-55
2023/03/28 00:06:30;;;;;;;;;;;;;;;;;;1032643;28;2324;-53
2023/03/28 00:07:00;;;;;;;;;;;;;;;;;;1033934;28;4139;-56
2023/03/28 00:07:31;;;;;;;;;;;;;;;;;;1033672;28;2737;-55
2023/03/28 00:08:02;;;;;;;;;;;;;;;;;;1033678;28;4070;-54
2023/03/28 00:08:32;;;;;;;;;;;;;;;;;;1032021;28;2812;-54
2023/03/28 00:09:03;;;;;;;;;;;;;;;;;;1033724;28;3952;-57
2023/03/28 00:09:33;;;;;;;;;;;;;;;;;;1034188;28;4099;-53
2023/03/28 00:10:05;;;;;;;;;;;;;;;;;;1035438;28;2006;-54
2023/03/28 00:10:35;;;;;;;;;;;;;;;;;;1033253;28;3979;-55
2023/03/28 00:11:06;;;;;;;;;;;;;;;;;;1032318;28;2832;-54
2023/03/28 00:11:36;;;;;;;;;;;;;;;;;;1033623;28;3809;-54
2023/03/28 00:12:07;;;;;;;;;;;;;;;;;;1034556;28;2677;-56
2023/03/28 00:12:37;;;;;;;;;;;;;;;;;;1034057;28;3940;-56
2023/03/28 00:13:07;;;;;;;;;;;;;;;;;;1032175;28;2706;-53
2023/03/28 00:13:38;;;;;;;;;;;;;;;;;;1034530;28;4084;-54
2023/03/28 00:14:08;;;;;;;;;;;;;;;;;;1034608;28;2739;-57
2023/03/28 00:14:39;;;;;;;;;;;;;;;;;;1035226;28;3791;-55
2023/03/28 00:15:09;;;;;;;;;;;;;;;;;;1032888;28;2777;-55
2023/03/28 00:15:41;;;;;;;;;;;;;;;;;;1032815;28;3891;-56
2023/03/28 00:16:11;;;;;;;;;;;;;;;;;;1032141;28;2439;-56
2023/03/28 00:16:45;;;;;;;;;;;;;;;;;;1036335;28;3839;-54
2023/03/28 00:17:16;;;;;;;;;;;;;;;;;;1034295;28;1812;-57
2023/03/28 00:17:47;;;;;;;;;;;;;;;;;;1032141;28;4067;-55
2023/03/28 00:18:17;;;;;;;;;;;;;;;;;;1035595;28;2984;-53
2023/03/28 00:18:49;;;;;;;;;;;;;;;;;;1033865;28;4020;-55
2023/03/28 00:19:19;;;;;;;;;;;;;;;;;;1034612;28;1810;-56
2023/03/28 00:19:52;;;;;;;;;;;;;;;;;;1034164;28;3892;-57
2023/03/28 00:20:22;;;;;;;;;;;;;;;;;;1035540;28;1755;-53
2023/03/28 00:20:52;;;;;;;;;;;;;;;;;;1032728;28;4048;-56
2023/03/28 00:21:23;;;;;;;;;;;;;;;;;;1035163;28;2658;-54
2023/03/28 00:21:56;;;;;;;;;;;;;;;;;;1032324;28;4442;-55
2023/03/28 00:22:29;;;;;;;;;;;;;;;;;;1034555;28;2998;-53
2023/03/28 00:22:59;;;;;;;;;;;;;;;;;;1032601;28;4064;-56
2023/03/28 00:23:30;;;;;;;;;;;;;;;;;;1032408;28;2801;-54
2023/03/28 00:24:01;;;;;;;;;;;;;;;;;;1035588;28;3961;-57
2023/03/28 00:24:37;;;;;;;;;;;;;;;;;;1032240;28;2779;-55
2023/03/28 00:25:08;;;;;;;;;;;;;;;;;;1033222;28;3952;-55
2023/03/28 00:25:40;;;;;;;;;;;;;;;;;;1032814;28;4078;-56
2023/03/28 00:26:12;;;;;;;;;;;;;;;;;;1034280;28;1955;-51
2023/03/28 00:26:43;;;;;;;;;;;;;;;;;;1034487;28;4057;-56
2023/03/28 00:27:14;;;;;;;;;;;;;;;;;;1035052;28;2068;-56
2023/03/28 00:27:44;;;;;;;;;;;;;;;;;;1028740;28;4926;-52
2023/03/28 00:28:15;;;;;;;;;;;;;;;;;;1030456;28;2275;-56
2023/03/28 00:28:46;;;;;;;;;;;;;;;;;;1026658;28;3991;-55
2023/03/28 00:29:19;;;;;;;;;;;;;;;;;;1030029;28;1858;-54
2023/03/28 00:29:50;;;;;;;;;;;;;;;;;;1031043;28;4115;-56
2023/03/28 00:30:20;;;;;;;;;;;;;;;;;;1029353;28;2686;-54
2023/03/28 00:30:50;;;;;;;;;;;;;;;;;;1031370;28;5260;-54
2023/03/28 00:31:21;;;;;;;;;;;;;;;;;;1031867;28;2850;-57
2023/03/28 00:31:52;;;;;;;;;;;;;;;;;;1029361;28;3899;-55
2023/03/28 00:32:22;;;;;;;;;;;;;;;;;;1033907;28;2614;-56
2023/03/28 00:32:52;;;;;;;;;;;;;;;;;;1031802;28;3791;-53
2023/03/28 00:33:22;;;;;;;;;;;;;;;;;;1034430;28;2839;-57
2023/03/28 00:33:53;;;;;;;;;;;;;;;;;;1034473;28;3880;-55
2023/03/28 00:34:23;;;;;;;;;;;;;;;;;;1033850;28;2896;-57
2023/03/28 00:34:55;;;;;;;;;;;;;;;;;;1032654;28;3921;-54
2023/03/28 00:35:25;;;;;;;;;;;;;;;;;;1035132;28;2166;-54
2023/03/28 00:35:56;;;;;;;;;;;;;;;;;;1035294;28;4084;-56
2023/03/28 00:36:28;;;;;;;;;;;;;;;;;;1034689;28;1666;-55
2023/03/28 00:37:01;;;;;;;;;;;;;;;;;;1033128;28;3978;-54
2023/03/28 00:37:31;;;;;;;;;;;;;;;;;;1033306;28;1891;-52
2023/03/28 00:38:02;;;;;;;;;;;;;;;;;;1032371;28;4042;-57
2023/03/28 00:38:32;;;;;;;;;;;;;;;;;;1032636;28;3193;-56
2023/03/28 00:39:05;;;;;;;;;;;;;;;;;;1030501;28;3722;-54
2023/03/28 00:39:35;;;;;;;;;;;;;;;;;;1031408;28;3877;-57
2023/03/28 00:40:06;;;;;;;;;;;;;;;;;;1033564;28;2954;-54
2023/03/28 00:40:37;;;;;;;;;;;;;;;;;;1030804;28;4112;-54
2023/03/28 00:41:08;;;;;;;;;;;;;;;;;;1028446;28;2906;-57
2023/03/28 00:41:41;;;;;;;;;;;;;;;;;;1028402;28;4107;-52
2023/03/28 00:42:12;;;;;;;;;;;;;;;;;;1028973;28;2446;-54
2023/03/28 00:42:43;;;;;;;;;;;;;;;;;;1033007;28;4050;-56
2023/03/28 00:43:13;;;;;;;;;;;;;;;;;;1034505;28;1989;-56
2023/03/28 00:43:45;;;;;;;;;;;;;;;;;;1033173;28;3865;-54
2023/03/28 00:44:34;;;;;;;;;;;;;;;;;;1034641;28;1790;-57
2023/03/28 00:45:08;;;;;;;;;;;;;;;;;;1031936;28;3817;-55
2023/03/28 00:45:39;;;;;;;;;;;;;;;;;;1035198;28;4048;-55
2023/03/28 00:46:11;;;;;;;;;;;;;;;;;;1033431;28;2728;-52
2023/03/28 00:46:41;;;;;;;;;;;;;;;;;;1031893;28;3868;-56
2023/03/28 00:47:20;;;;;;;;;;;;;;;;;;1032314;28;3208;-54
2023/03/28 00:47:56;;;;;;;;;;;;;;;;;;1031893;28;3791;-56
2023/03/28 00:48:27;;;;;;;;;;;;;;;;;;1034202;28;2791;-55
2023/03/28 00:49:02;;;;;;;;;;;;;;;;;;1030908;28;4044;-57
2023/03/28 00:49:33;;;;;;;;;;;;;;;;;;1033377;28;2038;-55
2023/03/28 00:50:05;;;;;;;;;;;;;;;;;;1034485;28;3801;-56
2023/03/28 00:50:37;;;;;;;;;;;;;;;;;;1035281;28;3916;-55
2023/03/28 00:51:07;;;;;;;;;;;;;;;;;;1033779;28;2781;-55
2023/03/28 00:51:40;;;;;;;;;;;;;;;;;;1034307;28;4176;-56
2023/03/28 00:52:12;;;;;;;;;;;;;;;;;;1033260;28;2035;-54
2023/03/28 00:52:45;;;;;;;;;;;;;;;;;;1032613;28;4079;-53
2023/03/28 00:53:17;;;;;;;;;;;;;;;;;;1033499;28;2786;-57
2023/03/28 00:53:48;;;;;;;;;;;;;;;;;;1032427;28;4061;-56
2023/03/28 00:54:19;;;;;;;;;;;;;;;;;;1030143;28;2769;-55
2023/03/28 00:54:50;;;;;;;;;;;;;;;;;;1029411;28;3960;-57
2023/03/28 00:55:23;;;;;;;;;;;;;;;;;;1030365;28;1852;-56
2023/03/28 00:56:00;;;;;;;;;;;;;;;;;;1033082;28;3947;-54
2023/03/28 00:56:33;;;;;;;;;;;;;;;;;;1033255;28;2746;-56
2023/03/28 00:57:04;;;;;;;;;;;;;;;;;;1032325;28;4078;-56
2023/03/28 00:57:37;;;;;;;;;;;;;;;;;;1034115;28;4401;-53
2023/03/28 00:58:09;;;;;;;;;;;;;;;;;;1033492;28;2246;-55
2023/03/28 00:58:41;;;;;;;;;;;;;;;;;;1031650;28;3878;-54
2023/03/28 00:59:13;;;;;;;;;;;;;;;;;;1031520;28;2867;-54
2023/03/28 00:59:44;;;;;;;;;;;;;;;;;;1033931;28;4049;-56
2023/03/28 01:00:17;;;;;;;;;;;;;;;;;;1031395;28;2759;-55
2023/03/28 01:00:48;;;;;;;;;;;;;;;;;;1031114;28;3794;-53
2023/03/28 01:01:18;;;;;;;;;;;;;;;;;;1034770;28;4282;-56
2023/03/28 01:01:49;;;;;;;;;;;;;;;;;;1032573;28;4161;-55
2023/03/28 01:02:20;;;;;;;;;;;;;;;;;;1033069;28;2326;-55
2023/03/28 01:02:53;;;;;;;;;;;;;;;;;;1034671;28;3800;-55
2023/03/28 01:03:26;;;;;;;;;;;;;;;;;;1031229;28;3427;-54
2023/03/28 01:04:02;;;;;;;;;;;;;;;;;;1034127;28;4220;-55
2023/03/28 01:04:35;;;;;;;;;;;;;;;;;;1034007;28;1675;-55
2023/03/28 01:05:06;;;;;;;;;;;;;;;;;;1032718;28;3920;-58
2023/03/28 01:05:36;;;;;;;;;;;;;;;;;;1034132;28;4037;-53
2023/03/28 01:06:07;;;;;;;;;;;;;;;;;;1031342;28;3237;-58
2023/03/28 01:06:40;;;;;;;;;;;;;;;;;;1031341;28;3827;-54
2023/03/28 01:07:11;;;;;;;;;;;;;;;;;;1033461;28;2555;-56
2023/03/28 01:07:44;;;;;;;;;;;;;;;;;;1034124;28;4144;-54
2023/03/28 01:08:27;;;;;;;;;;;;;;;;;;1032666;28;2619;-55
2023/03/28 01:08:58;;;;;;;;;;;;;;;;;;1034774;28;3995;-55
2023/03/28 01:09:30;;;;;;;;;;;;;;;;;;1033304;28;2671;-58
2023/03/28 01:10:01;;;;;;;;;;;;;;;;;;1033704;28;3991;-54
2023/03/28 01:10:32;;;;;;;;;;;;;;;;;;1033577;28;2338;-53
2023/03/28 01:11:03;;;;;;;;;;;;;;;;;;1030039;28;4089;-55
2023/03/28 01:11:35;;;;;;;;;;;;;;;;;;1035062;28;4061;-56
2023/03/28 01:12:05;;;;;;;;;;;;;;;;;;1032667;28;2999;-56
2023/03/28 01:12:36;;;;;;;;;;;;;;;;;;1035368;28;4077;-53
2023/03/28 01:13:06;;;;;;;;;;;;;;;;;;1034879;28;1895;-57
2023/03/28 01:13:38;;;;;;;;;;;;;;;;;;1032639;28;4014;-56
2023/03/28 01:14:12;;;;;;;;;;;;;;;;;;1033505;28;4421;-56
2023/03/28 01:14:43;;;;;;;;;;;;;;;;;;1035132;28;3816;-54
2023/03/28 01:15:13;;;;;;;;;;;;;;;;;;1035142;28;1709;-54
2023/03/28 01:15:44;;;;;;;;;;;;;;;;;;1031377;28;4099;-52
2023/03/28 01:16:15;;;;;;;;;;;;;;;;;;1033433;28;2827;-55
2023/03/28 01:16:46;;;;;;;;;;;;;;;;;;1032408;28;5834;-56
2023/03/28 01:17:17;;;;;;;;;;;;;;;;;;1033656;28;1319;-57
2023/03/28 01:17:49;;;;;;;;;;;;;;;;;;1034696;28;4048;-54
2023/03/28 01:18:21;;;;;;;;;;;;;;;;;;1033297;28;2874;-54
2023/03/28 01:18:51;;;;;;;;;;;;;;;;;;1034363;28;4057;-55
2023/03/28 01:19:25;;;;;;;;;;;;;;;;;;1033726;28;3011;-57
2023/03/28 01:19:57;;;;;;;;;;;;;;;;;;1030985;28;4053;-55
2023/03/28 01:20:34;;;;;;;;;;;;;;;;;;1033351;28;2717;-54
2023/03/28 01:21:05;;;;;;;;;;;;;;;;;;1034186;28;5222;-53
2023/03/28 01:21:41;;;;;;;;;;;;;;;;;;1033007;28;4073;-54
2023/03/28 01:22:32;;;;;;;;;;;;;;;;;;1034874;28;1839;-55
2023/03/28 01:23:31;;;;;;;;;;;;;;;;;;1033174;28;3956;-56
2023/03/28 01:24:05;;;;;;;;;;;;;;;;;;1040734;28;4081;-57
2023/03/28 01:24:35;;;;;;;;;;;;;;;;;;1034932;28;4073;-53
2023/03/28 01:25:06;;;;;;;;;;;;;;;;;;1039091;28;1724;-55
2023/03/28 01:25:46;;;;;;;;;;;;;;;;;;1037132;28;4062;-58
2023/03/28 01:26:22;;;;;;;;;;;;;;;;;;1039062;28;1585;-54
2023/03/28 01:27:05;;;;;;;;;;;;;;;;;;1038420;28;3718;-56
2023/03/28 01:27:44;;;;;;;;;;;;;;;;;;1037632;28;4137;-53
2023/03/28 01:28:33;;;;;;;;;;;;;;;;;;1036550;28;2784;-57
2023/03/28 01:29:22;;;;;;;;;;;;;;;;;;1037025;28;3886;-58
2023/03/28 01:30:02;;;;;;;;;;;;;;;;;;1038118;28;4039;-56
2023/03/28 01:30:42;;;;;;;;;;;;;;;;;;1036055;28;4092;-54
2023/03/28 01:31:27;;;;;;;;;;;;;;;;;;1038567;28;1903;-54
2023/03/28 01:32:33;;;;;;;;;;;;;;;;;;1037363;28;3996;-55
2023/03/28 01:33:03;;;;;;;;;;;;;;;;;;1036441;28;3914;-54
2023/03/28 01:33:47;;;;;;;;;;;;;;;;;;1038243;28;3868;-53
2023/03/28 01:34:35;;;;;;;;;;;;;;;;;;1036124;28;2785;-58
2023/03/28 01:35:17;;;;;;;;;;;;;;;;;;1037570;28;4056;-58
2023/03/28 01:36:11;;;;;;;;;;;;;;;;;;1035794;28;3767;-55
2023/03/28 01:37:00;;;;;;;;;;;;;;;;;;1038398;28;3804;-57
2023/03/28 01:37:33;;;;;;;;;;;;;;;;;;1036875;28;2871;-54
2023/03/28 01:38:09;;;;;;;;;;;;;;;;;;1033950;28;3793;-55
2023/03/28 01:38:46;;;;;;;;;;;;;;;;;;1034303;28;4074;-53
2023/03/28 01:39:35;;;;;;;;;;;;;;;;;;1031410;28;2662;-57
2023/03/28 01:40:25;;;;;;;;;;;;;;;;;;1031714;28;3895;-56
2023/03/28 01:40:55;;;;;;;;;;;;;;;;;;1031764;28;4056;-54
2023/03/28 01:41:26;;;;;;;;;;;;;;;;;;1033372;28;2862;-54
2023/03/28 01:42:11;;;;;;;;;;;;;;;;;;1033884;28;4231;-58
2023/03/28 01:43:00;;;;;;;;;;;;;;;;;;1030672;28;4038;-54
2023/03/28 01:43:30;;;;;;;;;;;;;;;;;;1034539;28;2950;-54
2023/03/28 01:44:22;;;;;;;;;;;;;;;;;;1033790;28;4194;-55
2023/03/28 01:44:56;;;;;;;;;;;;;;;;;;1032636;28;4859;-53
2023/03/28 01:45:35;;;;;;;;;;;;;;;;;;1031371;28;2822;-54
2023/03/28 01:46:10;;;;;;;;;;;;;;;;;;1031754;28;4887;-53
2023/03/28 01:46:45;;;;;;;;;;;;;;;;;;1033272;28;4040;-56
2023/03/28 01:47:26;;;;;;;;;;;;;;;;;;1035438;28;2219;-56
2023/03/28 01:48:11;;;;;;;;;;;;;;;;;;1031636;28;3955;-55
2023/03/28 01:49:03;;;;;;;;;;;;;;;;;;1033257;28;4049;-51
2023/03/28 01:49:33;;;;;;;;;;;;;;;;;;1033286;28;3808;-55
2023/03/28 01:50:03;;;;;;;;;;;;;;;;;;1033262;28;2864;-56
2023/03/28 01:50:46;;;;;;;;;;;;;;;;;;1033618;28;4332;-55
2023/03/28 01:51:32;;;;;;;;;;;;;;;;;;1032522;28;2828;-54
2023/03/28 01:52:07;;;;;;;;;;;;;;;;;;1032694;28;3958;-55
2023/03/28 01:52:39;;;;;;;;;;;;;;;;;;1033289;28;3886;-53
2023/03/28 01:53:10;;;;;;;;;;;;;;;;;;1032040;28;2337;-56
2023/03/28 01:53:43;;;;;;;;;;;;;;;;;;1032894;28;5439;-55
2023/03/28 01:54:27;;;;;;;;;;;;;;;;;;1034351;28;3038;-54
2023/03/28 01:55:07;;;;;;;;;;;;;;;;;;1033302;28;4069;-56
2023/03/28 01:56:04;;;;;;;;;;;;;;;;;;1032145;28;4053;-52
2023/03/28 01:56:37;;;;;;;;;;;;;;;;;;1032824;28;4083;-56
2023/03/28 01:57:14;;;;;;;;;;;;;;;;;;1032353;28;2695;-56
2023/03/28 01:57:49;;;;;;;;;;;;;;;;;;1032364;28;3867;-57
2023/03/28 01:58:26;;;;;;;;;;;;;;;;;;1035064;28;1583;-54
2023/03/28 01:59:12;;;;;;;;;;;;;;;;;;1033132;28;4054;-55
2023/03/28 01:59:45;;;;;;;;;;;;;;;;;;1031718;28;4135;-55
2023/03/28 02:00:22;;;;;;;;;;;;;;;;;;1032218;28;2472;-56
2023/03/28 02:00:57;;;;;;;;;;;;;;;;;;1031800;28;3867;-57
2023/03/28 02:01:35;;;;;;;;;;;;;;;;;;1033545;28;3006;-57
2023/03/28 02:02:12;;;;;;;;;;;;;;;;;;1038585;28;3951;-55
2023/03/28 02:03:06;;;;;;;;;;;;;;;;;;1036510;28;3810;-57
2023/03/28 02:03:38;;;;;;;;;;;;;;;;;;1036681;28;3923;-55
2023/03/28 02:04:10;;;;;;;;;;;;;;;;;;1037902;28;3232;-56
2023/03/28 02:04:44;;;;;;;;;;;;;;;;;;1038912;28;3882;-53
2023/03/28 02:05:14;;;;;;;;;;;;;;;;;;1034938;28;2642;-55
2023/03/28 02:05:46;;;;;;;;;;;;;;;;;;1037652;28;4456;-55
2023/03/28 02:06:19;;;;;;;;;;;;;;;;;;1038201;28;1872;-56
2023/03/28 02:06:51;;;;;;;;;;;;;;;;;;1036441;28;3887;-56
2023/03/28 02:07:23;;;;;;;;;;;;;;;;;;1034631;28;2789;-56
2023/03/28 02:07:54;;;;;;;;;;;;;;;;;;1036718;28;4108;-56
2023/03/28 02:08:27;;;;;;;;;;;;;;;;;;1038036;28;2147;-53
2023/03/28 02:08:58;;;;;;;;;;;;;;;;;;1037110;28;3862;-56
2023/03/28 02:09:30;;;;;;;;;;;;;;;;;;1036578;28;2684;-56
2023/03/28 02:10:02;;;;;;;;;;;;;;;;;;1036109;28;3775;-54
2023/03/28 02:10:33;;;;;;;;;;;;;;;;;;1037388;28;2998;-54
2023/03/28 02:11:05;;;;;;;;;;;;;;;;;;1037548;28;3981;-55
2023/03/28 02:11:36;;;;;;;;;;;;;;;;;;1035443;28;3876;-57
2023/03/28 02:12:13;;;;;;;;;;;;;;;;;;1036860;28;2691;-54
2023/03/28 02:12:50;;;;;;;;;;;;;;;;;;1037682;28;4049;-55
2023/03/28 02:13:22;;;;;;;;;;;;;;;;;;1036212;28;2800;-57
2023/03/28 02:13:56;;;;;;;;;;;;;;;;;;1038731;28;4027;-56
2023/03/28 02:14:29;;;;;;;;;;;;;;;;;;1034793;28;2698;-57
2023/03/28 02:15:03;;;;;;;;;;;;;;;;;;1036673;28;4048;-54
2023/03/28 02:15:34;;;;;;;;;;;;;;;;;;1037083;28;4041;-55
2023/03/28 02:16:05;;;;;;;;;;;;;;;;;;1035312;28;3395;-56
2023/03/28 02:16:37;;;;;;;;;;;;;;;;;;1035389;28;3923;-56
2023/03/28 02:17:14;;;;;;;;;;;;;;;;;;1037888;28;1774;-55
2023/03/28 02:17:48;;;;;;;;;;;;;;;;;;1036122;28;3940;-56
2023/03/28 02:18:22;;;;;;;;;;;;;;;;;;1037041;28;2829;-54
2023/03/28 02:18:54;;;;;;;;;;;;;;;;;;1035677;28;3767;-52
2023/03/28 02:19:25;;;;;;;;;;;;;;;;;;1037848;28;1895;-53
2023/03/28 02:19:58;;;;;;;;;;;;;;;;;;1037658;28;4265;-56
2023/03/28 02:20:30;;;;;;;;;;;;;;;;;;1036959;28;2614;-53
2023/03/28 02:21:03;;;;;;;;;;;;;;;;;;1039952;28;3989;-56
2023/03/28 02:21:38;;;;;;;;;;;;;;;;;;1037691;28;4054;-54
2023/03/28 02:22:28;;;;;;;;;;;;;;;;;;1039075;28;1574;-54
2023/03/28 02:23:10;;;;;;;;;;;;;;;;;;1036908;28;3873;-56
2023/03/28 02:23:44;;;;;;;;;;;;;;;;;;1036100;28;4077;-54
2023/03/28 02:24:14;;;;;;;;;;;;;;;;;;1036949;28;2292;-55
2023/03/28 02:24:49;;;;;;;;;;;;;;;;;;1037198;28;3845;-52
2023/03/28 02:25:19;;;;;;;;;;;;;;;;;;1036577;28;2731;-57
2023/03/28 02:25:50;;;;;;;;;;;;;;;;;;1038063;28;4397;-55
2023/03/28 02:26:22;;;;;;;;;;;;;;;;;;1037350;28;2246;-57
2023/03/28 02:26:53;;;;;;;;;;;;;;;;;;1036226;28;4053;-55
2023/03/28 02:27:23;;;;;;;;;;;;;;;;;;1036386;28;2802;-50
2023/03/28 02:27:56;;;;;;;;;;;;;;;;;;1037813;28;4111;-56
2023/03/28 02:28:27;;;;;;;;;;;;;;;;;;1039299;28;1823;-58
2023/03/28 02:28:58;;;;;;;;;;;;;;;;;;1036427;28;3801;-58
2023/03/28 02:29:29;;;;;;;;;;;;;;;;;;1037967;28;1770;-54
2023/03/28 02:30:00;;;;;;;;;;;;;;;;;;1038036;28;4012;-53
2023/03/28 02:30:30;;;;;;;;;;;;;;;;;;1036957;28;2023;-56
2023/03/28 02:31:02;;;;;;;;;;;;;;;;;;1037721;28;4818;-56
2023/03/28 02:31:32;;;;;;;;;;;;;;;;;;1035914;28;2659;-55
2023/03/28 02:32:02;;;;;;;;;;;;;;;;;;1037691;28;3790;-57
2023/03/28 02:32:32;;;;;;;;;;;;;;;;;;1038800;28;1941;-55
2023/03/28 02:33:04;;;;;;;;;;;;;;;;;;1037967;28;5037;-55
2023/03/28 02:33:39;;;;;;;;;;;;;;;;;;1039026;28;3888;-55
2023/03/28 02:34:09;;;;;;;;;;;;;;;;;;1037095;28;1850;-56
2023/03/28 02:34:44;;;;;;;;;;;;;;;;;;1037547;28;4425;-55
2023/03/28 02:35:15;;;;;;;;;;;;;;;;;;1036957;28;2876;-56
2023/03/28 02:35:52;;;;;;;;;;;;;;;;;;1036534;28;3972;-53
2023/03/28 02:36:32;;;;;;;;;;;;;;;;;;1036899;28;2665;-57
2023/03/28 02:37:11;;;;;;;;;;;;;;;;;;1037448;28;3704;-56
2023/03/28 02:37:44;;;;;;;;;;;;;;;;;;1037301;28;4044;-53
2023/03/28 02:38:22;;;;;;;;;;;;;;;;;;1037865;28;1777;-58
2023/03/28 02:38:58;;;;;;;;;;;;;;;;;;1038041;28;4047;-56
2023/03/28 02:39:28;;;;;;;;;;;;;;;;;;1037785;28;1926;-54
2023/03/28 02:40:11;;;;;;;;;;;;;;;;;;1037141;28;4223;-56
2023/03/28 02:40:41;;;;;;;;;;;;;;;;;;1037152;28;4106;-53
2023/03/28 02:41:11;;;;;;;;;;;;;;;;;;1038239;28;1656;-54
2023/03/28 02:42:02;;;;;;;;;;;;;;;;;;1036805;28;4032;-57
2023/03/28 02:42:44;;;;;;;;;;;;;;;;;;1035129;28;2673;-56
2023/03/28 02:43:22;;;;;;;;;;;;;;;;;;1038872;28;3966;-54
2023/03/28 02:43:52;;;;;;;;;;;;;;;;;;1037799;28;3929;-55
2023/03/28 02:44:28;;;;;;;;;;;;;;;;;;1036007;28;1851;-53
2023/03/28 02:45:21;;;;;;;;;;;;;;;;;;1038178;28;4210;-54
2023/03/28 02:46:10;;;;;;;;;;;;;;;;;;1035539;28;4239;-53
2023/03/28 02:47:00;;;;;;;;;;;;;;;;;;1036742;28;3899;-55
2023/03/28 02:47:30;;;;;;;;;;;;;;;;;;1036343;28;2780;-54
2023/03/28 02:48:00;;;;;;;;;;;;;;;;;;1038015;28;3841;-53
2023/03/28 02:48:39;;;;;;;;;;;;;;;;;;1037004;28;2874;-54
2023/03/28 02:49:19;;;;;;;;;;;;;;;;;;1036526;28;3779;-55
2023/03/28 02:49:55;;;;;;;;;;;;;;;;;;1036791;28;4087;-56
2023/03/28 02:50:39;;;;;;;;;;;;;;;;;;1037953;28;1945;-54
2023/03/28 02:51:12;;;;;;;;;;;;;;;;;;1033503;28;3654;-56
2023/03/28 02:51:52;;;;;;;;;;;;;;;;;;1031150;28;4046;-55
2023/03/28 02:52:39;;;;;;;;;;;;;;;;;;1036102;28;2689;-57
2023/03/28 02:53:21;;;;;;;;;;;;;;;;;;1031815;28;3812;-55
2023/03/28 02:54:03;;;;;;;;;;;;;;;;;;1028270;28;4023;-53
2023/03/28 02:54:36;;;;;;;;;;;;;;;;;;1030885;28;4132;-51
2023/03/28 02:55:16;;;;;;;;;;;;;;;;;;1032987;28;2019;-56
2023/03/28 02:55:58;;;;;;;;;;;;;;;;;;1030682;28;3816;-54
2023/03/28 02:57:00;;;;;;;;;;;;;;;;;;1032379;28;2778;-52
2023/03/28 02:57:33;;;;;;;;;;;;;;;;;;1028574;28;5452;-56
2023/03/28 02:58:09;;;;;;;;;;;;;;;;;;1028512;28;3860;-53
2023/03/28 02:58:46;;;;;;;;;;;;;;;;;;1032034;28;4225;-53
2023/03/28 02:59:19;;;;;;;;;;;;;;;;;;1034698;28;2739;-54
2023/03/28 02:59:58;;;;;;;;;;;;;;;;;;1035890;28;4033;-58
2023/03/28 03:00:29;;;;;;;;;;;;;;;;;;1035892;28;2501;-54
2023/03/28 03:01:01;;;;;;;;;;;;;;;;;;1036283;28;3972;-51
2023/03/28 03:01:32;;;;;;;;;;;;;;;;;;1037735;28;1826;-53
2023/03/28 03:02:03;;;;;;;;;;;;;;;;;;1033462;28;4026;-55
2023/03/28 03:02:33;;;;;;;;;;;;;;;;;;1032532;28;4077;-53
2023/03/28 03:03:07;;;;;;;;;;;;;;;;;;1034936;28;1452;-55
2023/03/28 03:03:38;;;;;;;;;;;;;;;;;;1030476;28;4037;-55
2023/03/28 03:04:10;;;;;;;;;;;;;;;;;;1033777;28;2218;-55
2023/03/28 03:04:40;;;;;;;;;;;;;;;;;;1034365;28;3940;-55
2023/03/28 03:05:10;;;;;;;;;;;;;;;;;;1031931;28;2264;-52
2023/03/28 03:05:41;;;;;;;;;;;;;;;;;;1032568;28;4123;-56
2023/03/28 03:06:12;;;;;;;;;;;;;;;;;;1033961;28;3102;-56
2023/03/28 03:06:44;;;;;;;;;;;;;;;;;;1034230;28;3873;-56
2023/03/28 03:07:16;;;;;;;;;;;;;;;;;;1031928;28;2671;-52
2023/03/28 03:07:48;;;;;;;;;;;;;;;;;;1034334;28;4171;-55
2023/03/28 03:08:18;;;;;;;;;;;;;;;;;;1032269;28;2765;-56
2023/03/28 03:08:49;;;;;;;;;;;;;;;;;;1034433;28;4048;-55
2023/03/28 03:09:21;;;;;;;;;;;;;;;;;;1032424;28;2805;-56
2023/03/28 03:09:52;;;;;;;;;;;;;;;;;;1035323;28;4049;-54
2023/03/28 03:10:23;;;;;;;;;;;;;;;;;;1032973;28;2668;-56
2023/03/28 03:10:53;;;;;;;;;;;;;;;;;;1033831;28;4358;-53
2023/03/28 03:11:26;;;;;;;;;;;;;;;;;;1033237;28;1855;-54
2023/03/28 03:11:57;;;;;;;;;;;;;;;;;;1034340;28;4027;-53
2023/03/28 03:12:27;;;;;;;;;;;;;;;;;;1034942;28;2813;-56
2023/03/28 03:12:57;;;;;;;;;;;;;;;;;;1032273;28;3882;-55
2023/03/28 03:13:27;;;;;;;;;;;;;;;;;;1030151;28;2848;-54
2023/03/28 03:13:59;;;;;;;;;;;;;;;;;;1032930;28;3966;-56
2023/03/28 03:14:29;;;;;;;;;;;;;;;;;;1032700;28;2315;-52
2023/03/28 03:15:00;;;;;;;;;;;;;;;;;;1031014;28;3984;-55
2023/03/28 03:15:30;;;;;;;;;;;;;;;;;;1030542;28;2660;-52
2023/03/28 03:16:01;;;;;;;;;;;;;;;;;;1032146;28;4024;-57
2023/03/28 03:16:31;;;;;;;;;;;;;;;;;;1033816;28;1572;-53
2023/03/28 03:17:02;;;;;;;;;;;;;;;;;;1033870;28;3973;-56
2023/03/28 03:17:32;;;;;;;;;;;;;;;;;;1032075;28;2746;-53
2023/03/28 03:18:03;;;;;;;;;;;;;;;;;;1031264;28;3968;-54
2023/03/28 03:18:33;;;;;;;;;;;;;;;;;;1031859;28;4083;-54
2023/03/28 03:19:04;;;;;;;;;;;;;;;;;;1033987;28;1746;-54
2023/03/28 03:19:35;;;;;;;;;;;;;;;;;;1033072;28;4074;-54
2023/03/28 03:20:06;;;;;;;;;;;;;;;;;;1030743;28;2795;-53
2023/03/28 03:20:36;;;;;;;;;;;;;;;;;;1033581;28;3888;-57
2023/03/28 03:21:06;;;;;;;;;;;;;;;;;;1032367;28;1862;-56
2023/03/28 03:21:37;;;;;;;;;;;;;;;;;;1031411;28;4103;-54
2023/03/28 03:22:07;;;;;;;;;;;;;;;;;;1031664;28;2840;-55
2023/03/28 03:22:38;;;;;;;;;;;;;;;;;;1033250;28;4055;-58
2023/03/28 03:23:08;;;;;;;;;;;;;;;;;;1034762;28;1670;-53
2023/03/28 03:23:39;;;;;;;;;;;;;;;;;;1033272;28;4047;-56
2023/03/28 03:24:10;;;;;;;;;;;;;;;;;;1031501;28;2920;-55
2023/03/28 03:24:40;;;;;;;;;;;;;;;;;;1032665;28;4029;-55
2023/03/28 03:25:11;;;;;;;;;;;;;;;;;;1033477;28;1815;-54
2023/03/28 03:25:42;;;;;;;;;;;;;;;;;;1033411;28;4050;-56
2023/03/28 03:26:12;;;;;;;;;;;;;;;;;;1030728;28;2675;-56
2023/03/28 03:26:42;;;;;;;;;;;;;;;;;;1033847;28;3784;-56
2023/03/28 03:27:13;;;;;;;;;;;;;;;;;;1031583;28;2817;-52
2023/03/28 03:27:43;;;;;;;;;;;;;;;;;;1034098;28;3875;-52
2023/03/28 03:28:15;;;;;;;;;;;;;;;;;;1033354;28;2972;-57
2023/03/28 03:28:45;;;;;;;;;;;;;;;;;;1032267;28;4101;-56
2023/03/28 03:29:15;;;;;;;;;;;;;;;;;;1033409;28;2864;-57
2023/03/28 03:29:47;;;;;;;;;;;;;;;;;;1033260;28;3966;-54
2023/03/28 03:30:17;;;;;;;;;;;;;;;;;;1032831;28;2759;-52
2023/03/28 03:30:48;;;;;;;;;;;;;;;;;;1033086;28;4046;-56
2023/03/28 03:31:20;;;;;;;;;;;;;;;;;;1034915;28;2232;-56
2023/03/28 03:31:50;;;;;;;;;;;;;;;;;;1032560;28;4235;-55
2023/03/28 03:32:20;;;;;;;;;;;;;;;;;;1032054;28;2746;-55
2023/03/28 03:32:51;;;;;;;;;;;;;;;;;;1035142;28;4426;-54
2023/03/28 03:33:21;;;;;;;;;;;;;;;;;;1034626;28;2226;-56
2023/03/28 03:33:51;;;;;;;;;;;;;;;;;;1033416;28;4053;-54
2023/03/28 03:34:23;;;;;;;;;;;;;;;;;;1032182;28;2719;-52
2023/03/28 03:34:53;;;;;;;;;;;;;;;;;;1031097;28;3873;-55
2023/03/28 03:35:23;;;;;;;;;;;;;;;;;;1035180;28;2729;-51
2023/03/28 03:35:53;;;;;;;;;;;;;;;;;;1031237;28;3887;-55
2023/03/28 03:36:25;;;;;;;;;;;;;;;;;;1035294;28;1731;-51
2023/03/28 03:36:56;;;;;;;;;;;;;;;;;;1036325;28;4057;-56
2023/03/28 03:37:26;;;;;;;;;;;;;;;;;;1037301;28;1897;-57
2023/03/28 03:37:56;;;;;;;;;;;;;;;;;;1036351;28;4084;-56
2023/03/28 03:38:26;;;;;;;;;;;;;;;;;;1035379;28;2762;-57
2023/03/28 03:38:57;;;;;;;;;;;;;;;;;;1036649;28;4300;-55
2023/03/28 03:39:27;;;;;;;;;;;;;;;;;;1037524;28;1979;-56
2023/03/28 03:39:58;;;;;;;;;;;;;;;;;;1036938;28;3969;-53
2023/03/28 03:40:28;;;;;;;;;;;;;;;;;;1037776;28;2509;-55
2023/03/28 03:40:58;;;;;;;;;;;;;;;;;;1038833;28;3969;-55
2023/03/28 03:41:28;;;;;;;;;;;;;;;;;;1038370;28;1818;-54
2023/03/28 03:41:59;;;;;;;;;;;;;;;;;;1037912;28;4178;-54
2023/03/28 03:42:29;;;;;;;;;;;;;;;;;;1037258;28;2806;-53
2023/03/28 03:42:59;;;;;;;;;;;;;;;;;;1040580;28;3970;-56
2023/03/28 03:43:30;;;;;;;;;;;;;;;;;;1037504;28;2237;-52
2023/03/28 03:44:00;;;;;;;;;;;;;;;;;;1038592;28;3994;-58
2023/03/28 03:44:31;;;;;;;;;;;;;;;;;;1035973;28;2819;-55
2023/03/28 03:45:01;;;;;;;;;;;;;;;;;;1033619;28;4936;-55
2023/03/28 03:45:31;;;;;;;;;;;;;;;;;;1037308;28;4102;-56
2023/03/28 03:46:02;;;;;;;;;;;;;;;;;;1038902;28;3808;-54
2023/03/28 03:46:32;;;;;;;;;;;;;;;;;;1037994;28;2260;-55
2023/03/28 03:47:03;;;;;;;;;;;;;;;;;;1037527;28;3975;-55
2023/03/28 03:47:33;;;;;;;;;;;;;;;;;;1039398;28;3952;-54
2023/03/28 03:48:03;;;;;;;;;;;;;;;;;;1039519;28;1847;-52
2023/03/28 03:48:34;;;;;;;;;;;;;;;;;;1036784;28;4077;-52
2023/03/28 03:49:04;;;;;;;;;;;;;;;;;;1037779;28;2870;-51
2023/03/28 03:49:34;;;;;;;;;;;;;;;;;;1037585;28;4074;-54
2023/03/28 03:50:06;;;;;;;;;;;;;;;;;;1036365;28;2728;-54
2023/03/28 03:50:37;;;;;;;;;;;;;;;;;;1038830;28;4241;-52
2023/03/28 03:51:07;;;;;;;;;;;;;;;;;;1038895;28;2265;-54
2023/03/28 03:51:38;;;;;;;;;;;;;;;;;;1038071;28;4057;-55
2023/03/28 03:52:08;;;;;;;;;;;;;;;;;;1038999;28;2971;-54
2023/03/28 03:52:38;;;;;;;;;;;;;;;;;;1038862;28;4103;-57
2023/03/28 03:53:09;;;;;;;;;;;;;;;;;;1038331;28;2253;-55
2023/03/28 03:53:40;;;;;;;;;;;;;;;;;;1037585;28;3834;-54